createdAt,value
2023-04-16T00:01:26.206Z,72.63
2023-04-16T00:03:52.956Z,73.70
2023-04-16T00:06:19.751Z,72.43
2023-04-16T00:08:46.265Z,72.60
2023-04-16T00:11:12.937Z,70.94
2023-04-16T00:13:39.442Z,73.29
2023-04-16T00:16:06.281Z,74.59
2023-04-16T00:18:32.779Z,72.58
2023-04-16T00:20:59.570Z,72.02
2023-04-16T00:23:26.062Z,72.60
2023-04-16T00:25:53.842Z,72.31
2023-04-16T00:28:20.418Z,71.29
2023-04-16T00:30:47.023Z,71.32
2023-04-16T00:33:13.649Z,72.63
2023-04-16T00:35:40.389Z,73.45
2023-04-16T00:38:06.910Z,70.84
2023-04-16T00:40:33.428Z,73.17
2023-04-16T00:42:59.932Z,71.57
2023-04-16T00:45:26.502Z,73.09
2023-04-16T00:47:53.026Z,73.66
2023-04-16T00:50:19.689Z,72.99
2023-04-16T00:52:49.467Z,73.18
2023-04-16T00:55:18.563Z,72.57
2023-04-16T00:57:45.893Z,73.92
2023-04-16T01:00:13.035Z,74.62
2023-04-16T01:02:39.843Z,73.39
2023-04-16T01:05:06.626Z,73.20
2023-04-16T01:07:33.097Z,72.46
2023-04-16T01:09:59.611Z,71.51
2023-04-16T01:12:26.251Z,71.48
2023-04-16T01:14:52.861Z,72.87
2023-04-16T01:17:19.326Z,73.45
2023-04-16T01:19:45.824Z,74.28
2023-04-16T01:22:12.453Z,74.46
2023-04-16T01:24:40.385Z,70.99
2023-04-16T01:27:09.995Z,71.75
2023-04-16T01:29:36.540Z,71.66
2023-04-16T01:32:03.019Z,72.87
2023-04-16T01:34:35.282Z,71.11
2023-04-16T01:37:04.005Z,71.70
2023-04-16T01:39:30.564Z,72.12
2023-04-16T01:41:57.968Z,71.54
2023-04-16T01:44:25.463Z,71.12
2023-04-16T01:46:51.979Z,71.20
2023-04-16T01:49:18.562Z,70.58
2023-04-16T01:51:45.124Z,70.27
2023-04-16T01:54:11.657Z,71.42
2023-04-16T01:56:39.469Z,70.68
2023-04-16T01:59:06.177Z,71.02
2023-04-16T02:01:37.894Z,72.62
2023-04-16T02:04:05.384Z,72.60
2023-04-16T02:06:32.102Z,71.28
2023-04-16T02:08:58.792Z,72.41
2023-04-16T02:11:26.339Z,73.14
2023-04-16T02:13:53.195Z,70.66
2023-04-16T02:16:19.886Z,70.59
2023-04-16T02:18:50.682Z,73.14
2023-04-16T02:21:20.191Z,73.22
2023-04-16T02:23:47.900Z,72.72
2023-04-16T02:26:14.498Z,72.25
2023-04-16T02:28:41.506Z,73.46
2023-04-16T02:31:10.314Z,73.13
2023-04-16T02:33:41.614Z,72.33
2023-04-16T02:36:08.140Z,73.73
2023-04-16T02:38:37.413Z,72.62
2023-04-16T02:41:03.956Z,74.61
2023-04-16T02:43:30.599Z,72.46
2023-04-16T02:45:59.210Z,72.07
2023-04-16T02:48:25.761Z,72.53
2023-04-16T02:50:52.231Z,71.90
2023-04-16T02:53:18.728Z,74.61
2023-04-16T02:55:55.297Z,72.01
2023-04-16T02:58:23.922Z,70.44
2023-04-16T03:00:50.900Z,71.98
2023-04-16T03:03:17.718Z,71.58
2023-04-16T03:05:44.247Z,71.71
2023-04-16T03:08:11.152Z,73.40
2023-04-16T03:10:37.749Z,71.59
2023-04-16T03:13:04.473Z,73.05
2023-04-16T03:15:31.477Z,72.91
2023-04-16T03:17:58.547Z,73.89
2023-04-16T03:20:25.405Z,72.72
2023-04-16T03:22:52.705Z,72.63
2023-04-16T03:25:19.253Z,73.30
2023-04-16T03:27:46.070Z,75.14
2023-04-16T03:30:14.197Z,74.47
2023-04-16T03:32:41.365Z,76.01
2023-04-16T03:35:08.935Z,75.65
2023-04-16T03:37:56.001Z,74.62
2023-04-16T03:40:22.601Z,74.30
2023-04-16T03:42:49.517Z,73.39
2023-04-16T03:45:16.534Z,73.26
2023-04-16T03:47:44.051Z,72.91
2023-04-16T03:50:11.521Z,73.52
2023-04-16T03:52:38.373Z,72.75
2023-04-16T03:55:05.336Z,71.06
2023-04-16T03:57:31.872Z,73.74
2023-04-16T04:00:04.950Z,74.39
2023-04-16T04:02:41.041Z,72.54
2023-04-16T04:05:13.533Z,71.30
2023-04-16T04:07:40.545Z,73.20
2023-04-16T04:10:08.702Z,73.91
2023-04-16T04:12:38.870Z,74.25
2023-04-16T04:15:06.052Z,73.74
2023-04-16T04:17:32.628Z,73.61
2023-04-16T04:20:01.636Z,74.77
2023-04-16T04:22:29.759Z,75.16
2023-04-16T04:24:56.303Z,73.27
2023-04-16T04:27:23.139Z,74.66
2023-04-16T04:29:49.655Z,74.28
2023-04-16T04:32:16.229Z,74.16
2023-04-16T04:34:43.706Z,73.54
2023-04-16T04:37:10.527Z,74.19
2023-04-16T04:39:38.153Z,72.66
2023-04-16T04:42:04.656Z,73.13
2023-04-16T04:44:31.568Z,73.31
2023-04-16T04:46:58.062Z,72.15
2023-04-16T04:49:24.910Z,72.77
2023-04-16T04:51:52.587Z,72.62
2023-04-16T04:54:20.460Z,73.87
2023-04-16T04:56:47.308Z,74.75
2023-04-16T04:59:14.462Z,73.84
2023-04-16T05:01:41.661Z,72.37
2023-04-16T05:04:08.326Z,72.74
2023-04-16T05:06:34.901Z,70.97
2023-04-16T05:09:01.453Z,71.32
2023-04-16T05:11:27.954Z,71.87
2023-04-16T05:13:54.486Z,72.18
2023-04-16T05:16:21.013Z,72.39
2023-04-16T05:18:47.556Z,74.13
2023-04-16T05:21:14.113Z,72.81
2023-04-16T05:23:40.696Z,72.53
2023-04-16T05:26:07.196Z,73.26
2023-04-16T05:28:33.847Z,73.43
2023-04-16T05:31:00.699Z,73.88
2023-04-16T05:33:27.626Z,73.86
2023-04-16T05:35:54.218Z,73.35
2023-04-16T05:38:20.722Z,71.32
2023-04-16T05:40:47.226Z,71.53
2023-04-16T05:43:13.938Z,72.64
2023-04-16T05:45:41.370Z,73.21
2023-04-16T05:48:09.249Z,72.47
2023-04-16T05:50:36.585Z,71.54
2023-04-16T05:53:06.137Z,71.40
2023-04-16T05:55:32.961Z,71.82
2023-04-16T05:57:59.521Z,71.55
2023-04-16T06:00:26.115Z,71.50
2023-04-16T06:02:52.749Z,73.27
2023-04-16T06:05:19.530Z,73.23
2023-04-16T06:07:46.016Z,73.48
2023-04-16T06:10:12.555Z,75.48
2023-04-16T06:12:39.024Z,71.38
2023-04-16T06:15:06.366Z,70.10
2023-04-16T06:17:32.891Z,72.81
2023-04-16T06:19:59.468Z,73.70
2023-04-16T06:22:26.211Z,72.20
2023-04-16T06:24:53.494Z,72.05
2023-04-16T06:27:20.089Z,72.52
2023-04-16T06:29:48.347Z,72.29
2023-04-16T06:32:14.899Z,73.32
2023-04-16T06:34:41.659Z,74.94
2023-04-16T06:37:10.510Z,73.75
2023-04-16T06:39:37.307Z,73.85
2023-04-16T06:42:04.277Z,74.65
2023-04-16T06:44:30.929Z,74.53
2023-04-16T06:46:57.576Z,73.48
2023-04-16T06:49:24.343Z,73.30
2023-04-16T06:51:50.894Z,73.32
2023-04-16T06:54:17.787Z,73.27
2023-04-16T06:56:44.358Z,73.36
2023-04-16T06:59:11.107Z,74.69
2023-04-16T07:01:37.848Z,74.92
2023-04-16T07:04:04.633Z,75.08
2023-04-16T07:06:31.927Z,72.06
2023-04-16T07:08:58.503Z,72.14
2023-04-16T07:11:25.870Z,72.18
2023-04-16T07:13:53.808Z,74.32
2023-04-16T07:16:20.800Z,73.35
2023-04-16T07:18:47.506Z,75.80
2023-04-16T07:21:14.061Z,73.01
2023-04-16T07:23:40.708Z,72.63
2023-04-16T07:26:07.419Z,72.37
2023-04-16T07:28:34.009Z,72.05
2023-04-16T07:31:00.578Z,70.22
2023-04-16T07:33:27.521Z,70.50
2023-04-16T07:35:54.040Z,71.14
2023-04-16T07:38:20.656Z,70.98
2023-04-16T07:40:47.143Z,71.44
2023-04-16T07:43:15.364Z,73.15
2023-04-16T07:45:42.044Z,71.14
2023-04-16T07:48:09.112Z,70.58
2023-04-16T07:50:36.307Z,73.45
2023-04-16T07:53:03.740Z,72.27
2023-04-16T07:55:30.380Z,72.25
2023-04-16T07:57:57.361Z,70.57
2023-04-16T08:00:23.831Z,72.87
2023-04-16T08:02:51.250Z,72.65
2023-04-16T08:05:18.092Z,72.06
2023-04-16T08:07:44.644Z,71.04
2023-04-16T08:10:11.355Z,71.01
2023-04-16T08:12:38.051Z,71.17
2023-04-16T08:15:05.648Z,72.99
2023-04-16T08:17:34.397Z,71.96
2023-04-16T08:20:01.716Z,73.01
2023-04-16T08:22:28.361Z,72.75
2023-04-16T08:24:55.064Z,71.09
2023-04-16T08:27:21.566Z,72.16
2023-04-16T08:29:48.490Z,74.14
2023-04-16T08:32:15.136Z,73.93
2023-04-16T08:34:41.929Z,72.98
2023-04-16T08:37:08.560Z,73.41
2023-04-16T08:39:35.333Z,72.82
2023-04-16T08:42:04.954Z,74.18
2023-04-16T08:44:36.259Z,73.24
2023-04-16T08:47:03.261Z,74.91
2023-04-16T08:49:30.019Z,73.90
2023-04-16T08:51:56.985Z,74.13
2023-04-16T08:54:38.648Z,75.46
2023-04-16T08:57:07.447Z,73.97
2023-04-16T08:59:34.345Z,75.84
2023-04-16T09:02:01.313Z,75.69
2023-04-16T09:04:28.788Z,75.71
2023-04-16T09:06:56.571Z,75.24
2023-04-16T09:09:23.813Z,73.70
2023-04-16T09:11:52.431Z,74.03
2023-04-16T09:14:19.364Z,74.76
2023-04-16T09:16:47.723Z,74.36
2023-04-16T09:19:15.019Z,73.39
2023-04-16T09:21:42.213Z,74.42
2023-04-16T09:24:09.783Z,75.00
2023-04-16T09:26:36.636Z,73.63
2023-04-16T09:29:03.252Z,75.09
2023-04-16T09:31:29.938Z,75.93
2023-04-16T09:34:08.120Z,74.87
2023-04-16T09:36:36.260Z,74.62
2023-04-16T09:39:03.840Z,74.46
2023-04-16T09:41:32.893Z,74.98
2023-04-16T09:44:01.797Z,74.00
2023-04-16T09:46:31.850Z,73.48
2023-04-16T09:48:58.411Z,74.91
2023-04-16T09:51:27.061Z,73.50
2023-04-16T09:53:54.819Z,72.72
2023-04-16T09:56:24.495Z,71.53
2023-04-16T09:58:51.009Z,72.15
2023-04-16T10:01:19.638Z,71.88
2023-04-16T10:03:49.947Z,72.54
2023-04-16T10:06:19.356Z,72.98
2023-04-16T10:08:53.794Z,71.77
2023-04-16T10:11:21.277Z,71.26
2023-04-16T10:13:47.770Z,73.99
2023-04-16T10:16:14.295Z,75.37
2023-04-16T10:18:42.229Z,75.10
2023-04-16T10:21:11.659Z,74.92
2023-04-16T10:23:42.077Z,74.01
2023-04-16T10:26:08.616Z,74.03
2023-04-16T10:28:35.720Z,73.34
2023-04-16T10:31:04.204Z,74.21
2023-04-16T10:33:32.782Z,74.69
2023-04-16T10:36:09.783Z,73.83
2023-04-16T10:38:40.092Z,73.41
2023-04-16T10:41:07.470Z,74.38
2023-04-16T10:43:40.483Z,74.35
2023-04-16T10:46:24.194Z,73.64
2023-04-16T10:48:54.205Z,74.51
2023-04-16T10:51:24.937Z,72.71
2023-04-16T10:53:51.811Z,74.11
2023-04-16T10:56:26.383Z,74.06
2023-04-16T10:58:55.029Z,75.35
2023-04-16T11:01:30.384Z,74.62
2023-04-16T11:03:59.910Z,73.21
2023-04-16T11:06:27.887Z,74.00
2023-04-16T11:08:55.402Z,75.16
2023-04-16T11:11:22.522Z,74.48
2023-04-16T11:13:49.152Z,74.41
2023-04-16T11:16:16.863Z,73.31
2023-04-16T11:18:51.064Z,73.49
2023-04-16T11:21:18.267Z,74.44
2023-04-16T11:23:53.101Z,72.12
2023-04-16T11:26:29.442Z,73.42
2023-04-16T11:28:57.302Z,73.66
2023-04-16T11:31:24.399Z,73.23
2023-04-16T11:33:51.043Z,74.30
2023-04-16T11:36:17.595Z,73.77
2023-04-16T11:38:44.341Z,73.06
2023-04-16T11:41:11.145Z,74.87
2023-04-16T11:43:37.683Z,72.80
2023-04-16T11:46:16.682Z,74.31
2023-04-16T11:48:52.859Z,72.31
2023-04-16T11:51:19.638Z,71.89
2023-04-16T11:53:47.628Z,72.87
2023-04-16T11:56:14.394Z,73.96
2023-04-16T11:58:42.504Z,75.09
2023-04-16T12:01:10.069Z,72.72
2023-04-16T12:03:46.836Z,74.32
2023-04-16T12:06:13.620Z,74.01
2023-04-16T12:08:40.217Z,73.30
2023-04-16T12:11:06.789Z,74.75
2023-04-16T12:13:39.757Z,74.20
2023-04-16T12:16:17.903Z,73.33
2023-04-16T12:18:59.711Z,73.41
2023-04-16T12:21:26.497Z,73.47
2023-04-16T12:23:53.644Z,74.74
2023-04-16T12:26:20.112Z,75.02
2023-04-16T12:28:46.675Z,74.04
2023-04-16T12:31:13.182Z,72.88
2023-04-16T12:33:39.798Z,75.45
2023-04-16T12:36:19.274Z,75.01
2023-04-16T12:38:46.500Z,73.63
2023-04-16T12:41:12.961Z,74.64
2023-04-16T12:43:39.554Z,74.29
2023-04-16T12:46:06.689Z,73.04
2023-04-16T12:48:33.755Z,75.27
2023-04-16T12:51:00.291Z,75.13
2023-04-16T12:53:27.164Z,72.70
2023-04-16T12:55:53.798Z,72.83
2023-04-16T12:58:20.258Z,74.33
2023-04-16T13:00:46.766Z,75.08
2023-04-16T13:03:13.461Z,74.28
2023-04-16T13:05:40.663Z,73.91
2023-04-16T13:08:07.271Z,75.44
2023-04-16T13:10:35.011Z,75.50
2023-04-16T13:13:01.497Z,74.63
2023-04-16T13:15:28.039Z,73.09
2023-04-16T13:17:54.588Z,73.59
2023-04-16T13:20:23.199Z,75.01
2023-04-16T13:22:50.846Z,73.99
2023-04-16T13:25:17.492Z,74.76
2023-04-16T13:27:43.966Z,73.32
2023-04-16T13:30:10.991Z,75.16
2023-04-16T13:32:37.768Z,75.44
2023-04-16T13:35:04.617Z,74.65
2023-04-16T13:37:31.092Z,73.49
2023-04-16T13:39:57.688Z,73.31
2023-04-16T13:42:24.440Z,72.26
2023-04-16T13:44:54.049Z,74.11
2023-04-16T13:47:20.841Z,72.90
2023-04-16T13:49:47.604Z,74.54
2023-04-16T13:52:14.153Z,73.52
2023-04-16T13:54:41.424Z,74.14
2023-04-16T13:57:19.773Z,72.50
2023-04-16T13:59:46.296Z,73.91
2023-04-16T14:02:12.998Z,73.01
2023-04-16T14:04:39.559Z,72.52
2023-04-16T14:07:06.063Z,72.89
2023-04-16T14:09:32.525Z,72.68
2023-04-16T14:11:59.019Z,73.18
2023-04-16T14:14:26.166Z,72.83
2023-04-16T14:16:54.761Z,72.72
2023-04-16T14:19:21.358Z,73.78
2023-04-16T14:21:47.917Z,72.89
2023-04-16T14:24:14.415Z,72.69
2023-04-16T14:26:43.144Z,72.07
2023-04-16T14:29:10.445Z,72.26
2023-04-16T14:31:37.367Z,71.46
2023-04-16T14:34:03.884Z,72.92
2023-04-16T14:36:31.155Z,71.79
2023-04-16T14:38:57.758Z,71.24
2023-04-16T14:41:25.257Z,71.43
2023-04-16T14:43:51.787Z,70.65
2023-04-16T14:46:19.244Z,70.57
2023-04-16T14:48:46.000Z,70.99
2023-04-16T14:51:12.765Z,71.51
2023-04-16T14:53:39.293Z,70.93
2023-04-16T14:56:05.855Z,72.05
2023-04-16T14:58:32.622Z,72.11
2023-04-16T15:00:59.520Z,71.98
2023-04-16T15:03:26.827Z,73.34
2023-04-16T15:05:56.341Z,72.39
2023-04-16T15:08:23.450Z,72.77
2023-04-16T15:10:50.923Z,72.62
2023-04-16T15:13:17.640Z,72.05
2023-04-16T15:15:44.242Z,71.35
2023-04-16T15:18:10.814Z,72.13
2023-04-16T15:20:37.266Z,72.78
2023-04-16T15:23:03.722Z,71.98
2023-04-16T15:25:30.266Z,74.36
2023-04-16T15:27:56.728Z,72.26
2023-04-16T15:30:23.230Z,73.38
2023-04-16T15:32:49.845Z,73.02
2023-04-16T15:35:16.536Z,74.30
2023-04-16T15:37:42.999Z,74.19
2023-04-16T15:40:10.719Z,73.36
2023-04-16T15:42:37.260Z,72.40
2023-04-16T15:45:03.978Z,74.03
2023-04-16T15:47:30.632Z,75.27
2023-04-16T15:49:57.139Z,74.79
2023-04-16T15:52:23.672Z,74.77
2023-04-16T15:54:50.291Z,74.10
2023-04-16T15:57:16.892Z,71.95
2023-04-16T15:59:50.130Z,72.24
2023-04-16T16:02:26.316Z,72.31
2023-04-16T16:04:53.184Z,72.94
2023-04-16T16:07:20.483Z,74.92
2023-04-16T16:09:48.139Z,73.22
2023-04-16T16:12:15.271Z,73.13
2023-04-16T16:14:43.654Z,72.32
2023-04-16T16:17:10.142Z,72.04
2023-04-16T16:19:36.648Z,72.25
2023-04-16T16:22:04.231Z,72.23
2023-04-16T16:24:30.729Z,71.32
2023-04-16T16:26:57.202Z,71.59
2023-04-16T16:29:25.347Z,72.94
2023-04-16T16:31:51.908Z,72.23
2023-04-16T16:34:21.120Z,72.91
2023-04-16T16:36:48.590Z,72.79
2023-04-16T16:39:15.158Z,71.90
2023-04-16T16:41:42.107Z,70.74
2023-04-16T16:44:09.648Z,70.93
2023-04-16T16:46:36.909Z,72.44
2023-04-16T16:49:06.225Z,72.62
2023-04-16T16:51:34.148Z,71.17
2023-04-16T16:54:01.030Z,71.28
2023-04-16T16:56:28.012Z,70.19
2023-04-16T16:58:54.650Z,70.72
2023-04-16T17:01:21.269Z,70.64
2023-04-16T17:03:48.073Z,71.83
2023-04-16T17:06:14.736Z,72.05
2023-04-16T17:08:41.271Z,72.48
2023-04-16T17:11:07.791Z,74.47
2023-04-16T17:13:34.874Z,72.42
2023-04-16T17:16:01.376Z,73.58
2023-04-16T17:18:28.112Z,72.95
2023-04-16T17:20:54.607Z,71.14
2023-04-16T17:23:21.224Z,70.11
2023-04-16T17:25:47.706Z,70.63
2023-04-16T17:28:14.160Z,71.74
2023-04-16T17:30:40.962Z,73.23
2023-04-16T17:33:07.559Z,71.54
2023-04-16T17:35:34.461Z,71.74
2023-04-16T17:38:01.334Z,71.39
2023-04-16T17:40:27.809Z,71.54
2023-04-16T17:42:54.322Z,70.69
2023-04-16T17:45:20.981Z,71.95
2023-04-16T17:47:47.518Z,72.53
2023-04-16T17:50:14.340Z,71.63
2023-04-16T17:52:41.125Z,71.09
2023-04-16T17:55:07.729Z,70.39
2023-04-16T17:57:34.196Z,71.88
2023-04-16T18:00:00.952Z,70.04
2023-04-16T18:02:27.806Z,71.99
2023-04-16T18:04:54.684Z,71.18
2023-04-16T18:07:21.216Z,70.89
2023-04-16T18:09:47.759Z,74.01
2023-04-16T18:12:14.245Z,70.69
2023-04-16T18:14:44.891Z,70.37
2023-04-16T18:17:11.647Z,72.62
2023-04-16T18:19:40.179Z,70.62
2023-04-16T18:22:06.651Z,71.07
2023-04-16T18:24:35.304Z,71.84
2023-04-16T18:27:02.807Z,71.55
2023-04-16T18:29:29.685Z,70.77
2023-04-16T18:31:56.375Z,71.80
2023-04-16T18:34:23.466Z,71.55
2023-04-16T18:36:49.953Z,71.66
2023-04-16T18:39:16.616Z,71.42
2023-04-16T18:41:47.570Z,70.96
2023-04-16T18:44:15.091Z,70.63
2023-04-16T18:46:41.851Z,72.43
2023-04-16T18:49:08.505Z,70.48
2023-04-16T18:51:35.127Z,70.50
2023-04-16T18:54:01.740Z,71.91
2023-04-16T18:56:29.914Z,70.93
2023-04-16T18:58:56.529Z,70.68
2023-04-16T19:01:23.192Z,71.26
2023-04-16T19:03:49.803Z,69.98
2023-04-16T19:06:16.306Z,70.41
2023-04-16T19:08:43.067Z,70.10
2023-04-16T19:11:09.630Z,70.12
2023-04-16T19:13:36.496Z,71.44
2023-04-16T19:16:04.905Z,71.12
2023-04-16T19:18:31.588Z,70.27
2023-04-16T19:21:01.476Z,71.13
2023-04-16T19:23:28.236Z,71.94
2023-04-16T19:25:57.819Z,71.39
2023-04-16T19:28:24.901Z,70.73
2023-04-16T19:30:52.475Z,71.35
2023-04-16T19:33:19.075Z,70.53
2023-04-16T19:35:46.481Z,70.62
2023-04-16T19:38:13.162Z,69.43
2023-04-16T19:40:40.311Z,70.13
2023-04-16T19:43:06.828Z,70.13
2023-04-16T19:45:33.410Z,69.57
2023-04-16T19:48:00.315Z,69.09
2023-04-16T19:50:26.945Z,69.12
2023-04-16T19:52:53.671Z,69.74
2023-04-16T19:55:20.192Z,69.89
2023-04-16T19:57:47.929Z,69.51
2023-04-16T20:00:15.015Z,69.12
2023-04-16T20:02:41.607Z,70.20
2023-04-16T20:05:08.762Z,69.67
2023-04-16T20:07:35.281Z,69.43
2023-04-16T20:10:02.997Z,70.30
2023-04-16T20:12:29.558Z,70.08
2023-04-16T20:14:56.135Z,69.06
2023-04-16T20:17:23.232Z,68.65
2023-04-16T20:19:51.387Z,69.02
2023-04-16T20:22:18.763Z,68.83
2023-04-16T20:24:48.021Z,69.53
2023-04-16T20:27:15.204Z,69.72
2023-04-16T20:29:41.905Z,69.42
2023-04-16T20:32:08.430Z,70.08
2023-04-16T20:34:34.932Z,69.76
2023-04-16T20:37:01.416Z,70.31
2023-04-16T20:39:27.943Z,70.70
2023-04-16T20:41:57.095Z,71.71
2023-04-16T20:44:26.404Z,70.41
2023-04-16T20:46:55.543Z,71.06
2023-04-16T20:49:22.111Z,70.25
2023-04-16T20:51:48.751Z,69.94
2023-04-16T20:54:15.922Z,70.17
2023-04-16T20:56:43.213Z,70.29
2023-04-16T20:59:10.197Z,69.78
2023-04-16T21:01:37.033Z,69.53
2023-04-16T21:04:03.763Z,69.30
2023-04-16T21:06:32.896Z,68.78
2023-04-16T21:08:59.415Z,69.11
2023-04-16T21:11:26.208Z,69.48
2023-04-16T21:13:52.888Z,69.24
2023-04-16T21:16:19.473Z,68.94
2023-04-16T21:18:46.185Z,69.00
2023-04-16T21:21:12.672Z,69.21
2023-04-16T21:23:39.185Z,69.04
2023-04-16T21:26:05.856Z,69.84
2023-04-16T21:28:32.523Z,69.54
2023-04-16T21:30:59.026Z,69.02
2023-04-16T21:33:25.622Z,69.32
2023-04-16T21:35:52.894Z,68.34
2023-04-16T21:38:19.990Z,68.65
2023-04-16T21:40:50.537Z,69.11
2023-04-16T21:43:17.824Z,68.95
2023-04-16T21:45:44.318Z,68.83
2023-04-16T21:48:10.929Z,69.20
2023-04-16T21:50:37.501Z,69.69
2023-04-16T21:53:06.492Z,68.67
2023-04-16T21:55:35.181Z,68.18
2023-04-16T21:58:02.548Z,67.94
2023-04-16T22:00:29.744Z,68.33
2023-04-16T22:02:56.541Z,68.27
2023-04-16T22:05:24.076Z,69.52
2023-04-16T22:07:51.478Z,69.55
2023-04-16T22:10:18.428Z,69.43
2023-04-16T22:12:45.645Z,68.46
2023-04-16T22:15:13.307Z,68.85
2023-04-16T22:17:40.455Z,69.16
2023-04-16T22:20:13.341Z,69.69
2023-04-16T22:22:43.664Z,69.76
2023-04-16T22:25:10.876Z,69.45
2023-04-16T22:27:37.602Z,69.19
2023-04-16T22:30:05.888Z,68.66
2023-04-16T22:32:33.142Z,68.99
2023-04-16T22:34:59.715Z,68.43
2023-04-16T22:37:26.195Z,68.41
2023-04-16T22:39:52.651Z,68.10
2023-04-16T22:42:19.168Z,68.43
2023-04-16T22:44:45.927Z,69.00
2023-04-16T22:47:12.430Z,69.29
2023-04-16T22:49:38.917Z,68.70
2023-04-16T22:52:05.488Z,68.87
2023-04-16T22:54:32.308Z,67.91
2023-04-16T22:56:59.216Z,68.50
2023-04-16T22:59:26.006Z,68.84
2023-04-16T23:01:52.974Z,68.64
2023-04-16T23:04:19.716Z,67.72
2023-04-16T23:06:46.331Z,67.93
2023-04-16T23:09:13.171Z,68.74
2023-04-16T23:11:39.891Z,68.46
2023-04-16T23:14:06.379Z,67.73
2023-04-16T23:16:32.941Z,67.17
2023-04-16T23:18:59.435Z,67.92
2023-04-16T23:21:26.231Z,68.09
2023-04-16T23:23:52.738Z,67.65
2023-04-16T23:26:19.226Z,67.86
2023-04-16T23:28:45.797Z,68.63
2023-04-16T23:31:12.637Z,69.04
2023-04-16T23:33:39.190Z,68.38
2023-04-16T23:36:06.023Z,68.77
2023-04-16T23:38:32.561Z,68.34
2023-04-16T23:40:59.175Z,67.96
2023-04-16T23:43:26.147Z,68.01
2023-04-16T23:45:52.765Z,67.66
2023-04-16T23:48:19.421Z,67.61
2023-04-16T23:50:45.930Z,67.13
2023-04-16T23:53:12.467Z,68.28
2023-04-16T23:55:39.379Z,68.58
2023-04-16T23:58:05.860Z,68.34
